VTCCVTUK

Guest
Details From VTCC - Chiang Mai Intl
To VTUK - Khon Kaen
Flight Number -
Tags generated
Created
Modified
Stats Distance 262 nm / 486 km
Max Altitude 33,500 ft / 10,211 m
Waypoints 5
Social Downloads 1
Likes 0
Share VATSIM

Download

Looking for another format? Having issues loading an existing format? Contact us
Advertisement - Login to hide

Notes

Basic altitude profile: - Ascent Rate: 2500ft/min - Ascent Speed: 250kts - Cruise Altitude: 35000ft - Cruise Speed: 420kts - Descent Rate: 1500ft/min - Descent Speed: 250kts Options: - Use NATs: yes - Use PACOTS: yes - Use low airways: yes - Use high airways: yes

Route

VTCC CMA W16 CMP VTUK

ID Type Via Altitude Latitude Longitude Leg Dist Tot Dist Heading (true) Name
O VTCC APT - 0 ft / 0 m 18.76685˚ 98.96264˚ - 0 nm - Chiang Mai Intl
CMA VOR - 0 ft / 0 m 18.76612˚ 98.96126˚ 0 nm 0 nm 241° / 241° CHIANG MAI VOR-DME
UTTAR FIX W16 (AWY-LO) 33,500 ft / 10,211 m 17.71803˚ 100.45167˚ 105 nm 105 nm 126° / 127° -
CMP VOR W16 (AWY-LO) 10,000 ft / 3,048 m 16.63647˚ 101.98483˚ 109 nm 215 nm 126° / 127° CHUM PHAE VOR-DME
O VTUK APT - 0 ft / 0 m 16.46663˚ 102.78366˚ 47 nm 262 nm 102° / 103° Khon Kaen

Altitude Profile

Advertisement - Login to hide

Weather


0- 5 10 15 20 25 30 35+ Temperature / ° C

Clouds and Precipitation
Forecast for 2017-12-13 12:00 UTC. Updated an hour ago

Ground ~20,000 ft ~40,000 ft Winds

VTCC

Details ICAO VTCC (CNX)
Name Chiang Mai Intl
Region Thailand
Timezone Asia/Bangkok (UTC+7.0)
Stats Elevation 1,036 ft / 316 m (AMSL)
Location 18.766845° 98.962643°
Runways 1
Magnetic Variation 0.738° W

METAR

VTCC 131030Z 00000KT 9999 FEW035 31/16 Q1011 NOSIG

Decode

TAF

TAF VTCC 130500Z 1306/1412 VRB02KT 9999 FEW035

Decode

Departure Runways

ID Width Length Bearing (true) Bearing (mag) Surface Threshold Offset Overrun Length
18 148 ft / 45 m 10,237 ft / 3,120 m 180.22° 180.96° Asphalt 0 ft / 0 m 974 ft / 297 m
36 148 ft / 45 m 10,237 ft / 3,120 m 0.22° 0.96° Asphalt 0 ft / 0 m 341 ft / 104 m

VTUK

Details ICAO VTUK (KKC)
Name Khon Kaen
Region Thailand
Timezone Asia/Bangkok (UTC+7.0)
Stats Elevation 670 ft / 204 m (AMSL)
Location 16.466628° 102.783663°
Runways 1
Magnetic Variation 0.807° W

METAR

VTUK 131000Z 03005KT 350V070 7000 FEW040 31/27 Q1009 NOSIG

Decode

TAF

TAF VTUK 130500Z 1306/1406 06006KT 8000 FEW035 BECMG 1322/1324 04003KT 4000 BR FEW040 BECMG 1402/1404 06003KT 8000 NSW FEW035

Decode

Destination Runways

ID Width Length Bearing (true) Bearing (mag) Surface Threshold Offset Overrun Length
03 148 ft / 45 m 10,043 ft / 3,061 m 32.69° 33.50° Asphalt 492 ft / 150 m 0 ft / 0 m
21 148 ft / 45 m 10,043 ft / 3,061 m 212.70° 213.51° Asphalt 492 ft / 150 m 0 ft / 0 m

Popular Alternatives